createdAt,value
2019-03-31T00:00:33.292Z,9.60
2019-03-31T00:03:03.945Z,9.50
2019-03-31T00:05:37.252Z,9.50
2019-03-31T00:08:07.037Z,9.40
2019-03-31T00:10:37.819Z,9.50
2019-03-31T00:13:08.383Z,9.30
2019-03-31T00:15:39.012Z,9.10
2019-03-31T00:18:09.708Z,9.00
2019-03-31T00:20:40.591Z,8.90
2019-03-31T00:23:11.392Z,8.90
2019-03-31T00:25:47.637Z,8.80
2019-03-31T00:28:18.648Z,8.60
2019-03-31T00:30:49.271Z,8.50
2019-03-31T00:33:19.884Z,8.60
2019-03-31T00:35:50.828Z,8.50
2019-03-31T00:38:21.427Z,8.50
2019-03-31T00:40:52.110Z,8.50
2019-03-31T00:43:22.933Z,8.50
2019-03-31T00:45:53.824Z,8.30
2019-03-31T00:48:24.854Z,8.10
2019-03-31T00:50:55.792Z,8.00
2019-03-31T00:53:26.365Z,8.00
2019-03-31T00:55:56.989Z,8.00
2019-03-31T00:58:27.620Z,8.10
2019-03-31T01:01:17.784Z,8.10
2019-03-31T01:03:50.333Z,8.00
2019-03-31T01:06:21.430Z,8.00
2019-03-31T01:08:52.425Z,7.80
2019-03-31T01:11:25.554Z,7.90
2019-03-31T01:13:57.363Z,7.90
2019-03-31T01:16:29.692Z,8.00
2019-03-31T01:19:00.397Z,8.10
2019-03-31T01:21:31.095Z,8.40
2019-03-31T01:24:01.748Z,8.40
2019-03-31T01:26:32.484Z,8.60
2019-03-31T01:29:03.620Z,8.70
2019-03-31T01:31:34.520Z,8.70
2019-03-31T01:34:05.808Z,8.60
2019-03-31T01:36:36.839Z,8.50
2019-03-31T01:39:08.568Z,8.30
2019-03-31T01:41:39.924Z,8.00
2019-03-31T01:44:11.795Z,8.00
2019-03-31T01:46:42.719Z,7.90
2019-03-31T01:49:13.292Z,7.80
2019-03-31T01:51:44.139Z,7.80
2019-03-31T01:54:15.209Z,7.80
2019-03-31T01:56:45.974Z,7.60
2019-03-31T01:59:17.025Z,7.60
2019-03-31T02:01:48.061Z,7.60
2019-03-31T02:04:18.648Z,7.50
2019-03-31T02:06:49.500Z,7.50
2019-03-31T02:09:20.467Z,7.50
2019-03-31T02:11:51.092Z,7.50
2019-03-31T02:14:21.673Z,7.40
2019-03-31T02:16:52.293Z,7.50
2019-03-31T02:19:23.271Z,7.40
2019-03-31T02:21:54.111Z,7.30
2019-03-31T02:24:24.735Z,7.30
2019-03-31T02:26:55.313Z,7.30
2019-03-31T02:29:26.194Z,7.20
2019-03-31T02:31:57.003Z,7.20
2019-03-31T02:34:28.094Z,7.10
2019-03-31T02:36:58.980Z,7.10
2019-03-31T02:39:30.317Z,7.10
2019-03-31T02:42:01.244Z,7.00
2019-03-31T02:44:31.896Z,7.00
2019-03-31T02:47:03.700Z,7.10
2019-03-31T02:49:34.358Z,7.10
2019-03-31T02:52:04.925Z,7.10
2019-03-31T02:54:35.885Z,7.00
2019-03-31T02:57:07.898Z,7.00
2019-03-31T02:59:41.459Z,7.00
2019-03-31T03:02:14.238Z,7.00
2019-03-31T03:04:46.749Z,7.00
2019-03-31T03:07:18.729Z,7.00
2019-03-31T03:09:51.368Z,7.10
2019-03-31T03:12:25.271Z,7.10
2019-03-31T03:14:59.081Z,7.40
2019-03-31T03:17:29.692Z,7.50
2019-03-31T03:20:01.717Z,7.50
2019-03-31T03:22:32.668Z,7.50
2019-03-31T03:25:03.282Z,7.30
2019-03-31T03:27:34.418Z,7.30
2019-03-31T03:30:05.408Z,7.30
2019-03-31T03:32:37.445Z,7.40
2019-03-31T03:35:08.262Z,7.40
2019-03-31T03:37:39.621Z,7.30
2019-03-31T03:40:10.508Z,7.20
2019-03-31T03:42:41.130Z,7.30
2019-03-31T03:45:12.029Z,7.10
2019-03-31T03:47:43.005Z,7.00
2019-03-31T03:50:15.017Z,6.90
2019-03-31T03:52:45.731Z,6.90
2019-03-31T03:55:16.543Z,7.00
2019-03-31T03:57:48.021Z,6.90
2019-03-31T04:00:18.685Z,6.90
2019-03-31T04:02:49.330Z,6.80
2019-03-31T04:05:20.221Z,6.80
2019-03-31T04:07:52.082Z,6.70
2019-03-31T04:10:59.153Z,6.60
2019-03-31T04:13:30.028Z,6.50
2019-03-31T04:16:00.837Z,6.30
2019-03-31T04:18:31.745Z,6.30
2019-03-31T04:21:02.585Z,6.20
2019-03-31T04:23:33.457Z,6.00
2019-03-31T04:26:04.133Z,5.90
2019-03-31T04:28:34.767Z,5.90
2019-03-31T04:31:05.414Z,5.80
2019-03-31T04:33:50.533Z,5.90
2019-03-31T04:36:09.042Z,5.90
2019-03-31T04:38:39.682Z,6.00
2019-03-31T04:41:10.581Z,6.20
2019-03-31T04:43:41.652Z,6.10
2019-03-31T04:46:12.225Z,6.10
2019-03-31T04:48:43.120Z,6.10
2019-03-31T04:51:14.176Z,6.20
2019-03-31T04:53:45.448Z,6.20
2019-03-31T04:56:16.040Z,6.00
2019-03-31T04:58:46.676Z,5.90
2019-03-31T05:01:17.250Z,6.10
2019-03-31T05:03:58.009Z,6.10
2019-03-31T05:06:20.712Z,6.10
2019-03-31T05:08:51.524Z,5.80
2019-03-31T05:11:22.175Z,5.60
2019-03-31T05:13:53.640Z,5.70
2019-03-31T05:16:24.531Z,5.60
2019-03-31T05:18:55.324Z,5.80
2019-03-31T05:21:26.006Z,6.00
2019-03-31T05:23:56.788Z,6.10
2019-03-31T05:26:27.612Z,6.20
2019-03-31T05:28:58.485Z,6.50
2019-03-31T05:31:29.296Z,6.70
2019-03-31T05:33:59.936Z,6.80
2019-03-31T05:36:30.560Z,6.60
2019-03-31T05:39:01.161Z,6.40
2019-03-31T05:41:31.793Z,6.50
2019-03-31T05:44:05.823Z,6.70
2019-03-31T05:46:35.200Z,6.80
2019-03-31T05:49:06.044Z,6.90
2019-03-31T05:51:36.671Z,7.00
2019-03-31T05:54:07.256Z,7.30
2019-03-31T05:56:38.524Z,7.50
2019-03-31T05:59:09.441Z,7.80
2019-03-31T06:01:40.550Z,7.80
2019-03-31T06:04:11.119Z,7.90
2019-03-31T06:06:42.088Z,7.90
2019-03-31T06:09:12.908Z,7.90
2019-03-31T06:11:43.765Z,8.00
2019-03-31T06:14:14.587Z,7.90
2019-03-31T06:16:45.235Z,7.90
2019-03-31T06:19:16.535Z,8.00
2019-03-31T06:21:47.462Z,8.00
2019-03-31T06:24:18.065Z,7.80
2019-03-31T06:26:48.851Z,7.70
2019-03-31T06:29:19.667Z,7.70
2019-03-31T06:31:50.332Z,7.80
2019-03-31T06:34:21.199Z,7.80
2019-03-31T06:36:52.227Z,7.80
2019-03-31T06:39:23.319Z,7.80
2019-03-31T06:41:54.151Z,7.80
2019-03-31T06:44:25.009Z,7.90
2019-03-31T06:46:56.676Z,7.90
2019-03-31T06:49:27.367Z,8.20
2019-03-31T06:51:58.309Z,8.20
2019-03-31T06:54:29.103Z,8.40
2019-03-31T06:56:59.812Z,8.70
2019-03-31T06:59:30.612Z,8.50
2019-03-31T07:02:03.329Z,8.60
2019-03-31T07:04:33.848Z,8.90
2019-03-31T07:07:04.627Z,9.20
2019-03-31T07:09:35.555Z,9.10
2019-03-31T07:12:06.218Z,8.90
2019-03-31T07:14:37.125Z,8.80
2019-03-31T07:17:08.642Z,8.80
2019-03-31T07:19:40.005Z,9.00
2019-03-31T07:22:10.807Z,8.90
2019-03-31T07:24:41.704Z,8.70
2019-03-31T07:27:12.522Z,8.70
2019-03-31T07:29:43.144Z,8.70
2019-03-31T07:32:14.080Z,8.80
2019-03-31T07:34:44.930Z,8.60
2019-03-31T07:37:15.637Z,8.60
2019-03-31T07:39:46.707Z,8.50
2019-03-31T07:42:17.916Z,8.60
2019-03-31T07:44:48.785Z,8.70
2019-03-31T07:47:19.541Z,9.10
2019-03-31T07:49:50.396Z,9.20
2019-03-31T07:52:21.236Z,9.30
2019-03-31T07:54:51.816Z,9.50
2019-03-31T07:57:22.668Z,9.80
2019-03-31T07:59:56.504Z,9.80
2019-03-31T08:02:26.111Z,10.00
2019-03-31T08:04:56.804Z,10.20
2019-03-31T08:07:27.444Z,9.90
2019-03-31T08:09:58.176Z,9.60
2019-03-31T08:12:29.492Z,9.50
2019-03-31T08:15:00.386Z,9.30
2019-03-31T08:17:33.131Z,9.20
2019-03-31T08:20:04.249Z,9.30
2019-03-31T08:22:34.823Z,9.70
2019-03-31T08:25:06.025Z,10.20
2019-03-31T08:27:36.799Z,10.50
2019-03-31T08:30:10.406Z,10.30
2019-03-31T08:32:41.300Z,10.40
2019-03-31T08:35:13.282Z,10.00
2019-03-31T08:37:44.176Z,9.70
2019-03-31T08:40:16.602Z,9.60
2019-03-31T08:42:47.413Z,9.80
2019-03-31T08:45:18.227Z,9.90
2019-03-31T08:47:49.556Z,10.10
2019-03-31T08:50:20.642Z,9.90
2019-03-31T08:52:51.477Z,9.80
2019-03-31T08:55:22.403Z,9.70
2019-03-31T08:57:53.436Z,9.70
2019-03-31T09:00:41.200Z,9.80
2019-03-31T09:03:12.032Z,9.90
2019-03-31T09:05:42.908Z,9.90
2019-03-31T09:08:14.767Z,10.00
2019-03-31T09:10:45.845Z,10.50
2019-03-31T09:13:16.743Z,10.50
2019-03-31T09:15:47.768Z,10.40
2019-03-31T09:18:18.380Z,10.30
2019-03-31T09:20:48.955Z,10.20
2019-03-31T09:23:19.820Z,10.30
2019-03-31T09:25:50.380Z,10.50
2019-03-31T09:28:21.011Z,10.40
2019-03-31T09:30:53.021Z,10.30
2019-03-31T09:33:24.228Z,10.10
2019-03-31T09:35:55.148Z,10.00
2019-03-31T09:38:26.256Z,9.80
2019-03-31T09:40:57.126Z,10.00
2019-03-31T09:43:27.932Z,10.30
2019-03-31T09:45:59.570Z,10.40
2019-03-31T09:48:30.214Z,10.50
2019-03-31T09:51:01.238Z,10.30
2019-03-31T09:53:32.280Z,10.00
2019-03-31T09:56:02.897Z,9.90
2019-03-31T09:58:33.826Z,9.70
2019-03-31T10:01:07.883Z,9.60
2019-03-31T10:03:37.385Z,9.70
2019-03-31T10:06:10.906Z,9.60
2019-03-31T10:08:42.171Z,9.60
2019-03-31T10:11:13.008Z,9.80
2019-03-31T10:13:43.799Z,9.80
2019-03-31T10:16:14.720Z,9.90
2019-03-31T10:18:45.276Z,9.90
2019-03-31T10:21:16.114Z,9.80
2019-03-31T10:23:47.122Z,9.60
2019-03-31T10:26:31.042Z,9.70
2019-03-31T10:28:50.298Z,10.00
2019-03-31T10:31:21.168Z,10.40
2019-03-31T10:33:52.982Z,10.60
2019-03-31T10:36:23.857Z,10.50
2019-03-31T10:38:54.442Z,10.50
2019-03-31T10:41:25.797Z,10.70
2019-03-31T10:43:56.652Z,11.00
2019-03-31T10:46:27.360Z,11.20
2019-03-31T10:48:57.959Z,11.20
2019-03-31T10:51:28.571Z,11.20
2019-03-31T10:53:59.825Z,11.30
2019-03-31T10:56:30.783Z,11.50
2019-03-31T10:59:01.970Z,11.30
2019-03-31T11:01:33.008Z,11.40
2019-03-31T11:04:03.993Z,11.30
2019-03-31T11:06:34.691Z,11.20
2019-03-31T11:09:07.132Z,11.30
2019-03-31T11:11:37.716Z,11.20
2019-03-31T11:14:08.559Z,11.60
2019-03-31T11:16:39.342Z,12.10
2019-03-31T11:19:09.952Z,12.00
2019-03-31T11:21:45.780Z,11.70
2019-03-31T11:24:19.059Z,11.80
2019-03-31T11:26:49.718Z,11.40
2019-03-31T11:29:20.403Z,11.00
2019-03-31T11:31:51.528Z,10.90
2019-03-31T11:34:22.584Z,10.80
2019-03-31T11:36:53.701Z,10.70
2019-03-31T11:39:24.321Z,10.70
2019-03-31T11:41:54.888Z,10.90
2019-03-31T11:44:27.790Z,11.40
2019-03-31T11:46:58.756Z,12.00
2019-03-31T11:49:29.651Z,12.10
2019-03-31T11:52:00.309Z,12.70
2019-03-31T11:54:30.877Z,12.40
2019-03-31T11:57:01.497Z,12.30
2019-03-31T11:59:32.541Z,12.00
2019-03-31T12:02:03.163Z,12.00
2019-03-31T12:04:34.945Z,12.00
2019-03-31T12:07:05.622Z,11.80
2019-03-31T12:09:36.404Z,11.80
2019-03-31T12:12:07.085Z,12.20
2019-03-31T12:14:37.912Z,12.70
2019-03-31T12:17:09.034Z,12.40
2019-03-31T12:19:40.676Z,12.30
2019-03-31T12:22:11.820Z,12.20
2019-03-31T12:24:42.434Z,12.10
2019-03-31T12:27:13.261Z,11.80
2019-03-31T12:29:44.069Z,11.50
2019-03-31T12:32:15.010Z,11.40
2019-03-31T12:34:46.371Z,11.30
2019-03-31T12:37:18.040Z,11.40
2019-03-31T12:39:50.268Z,11.50
2019-03-31T12:42:21.385Z,11.60
2019-03-31T12:44:52.245Z,11.70
2019-03-31T12:47:22.877Z,11.90
2019-03-31T12:49:55.205Z,12.30
2019-03-31T12:52:26.468Z,12.50
2019-03-31T12:54:57.344Z,12.30
2019-03-31T12:57:28.297Z,12.00
2019-03-31T12:59:59.611Z,12.00
2019-03-31T13:02:30.492Z,11.90
2019-03-31T13:05:01.297Z,11.80
2019-03-31T13:07:33.376Z,11.90
2019-03-31T13:10:04.031Z,12.00
2019-03-31T13:12:35.150Z,12.40
2019-03-31T13:15:06.384Z,12.70
2019-03-31T13:17:37.245Z,12.70
2019-03-31T13:20:08.068Z,12.50
2019-03-31T13:22:39.164Z,12.50
2019-03-31T13:25:10.346Z,12.70
2019-03-31T13:27:41.149Z,13.10
2019-03-31T13:30:12.172Z,13.10
2019-03-31T13:32:42.839Z,12.80
2019-03-31T13:35:13.611Z,12.90
2019-03-31T13:37:44.363Z,13.40
2019-03-31T13:40:15.279Z,13.30
2019-03-31T13:42:46.000Z,13.10
2019-03-31T13:45:16.936Z,13.20
2019-03-31T13:47:48.288Z,13.40
2019-03-31T13:50:19.172Z,13.10
2019-03-31T13:52:49.969Z,12.60
2019-03-31T13:55:22.041Z,12.50
2019-03-31T13:57:54.242Z,12.50
2019-03-31T14:00:36.875Z,12.80
2019-03-31T14:03:07.749Z,12.50
2019-03-31T14:05:38.465Z,12.50
2019-03-31T14:08:09.287Z,12.60
2019-03-31T14:10:40.344Z,12.60
2019-03-31T14:13:10.957Z,12.70
2019-03-31T14:15:42.073Z,13.10
2019-03-31T14:18:12.983Z,13.30
2019-03-31T14:20:43.765Z,12.90
2019-03-31T14:23:14.385Z,12.60
2019-03-31T14:25:45.588Z,12.50
2019-03-31T14:28:16.596Z,12.40
2019-03-31T14:30:47.492Z,12.70
2019-03-31T14:33:18.380Z,12.90
2019-03-31T14:35:49.233Z,12.70
2019-03-31T14:38:19.853Z,12.40
2019-03-31T14:40:50.745Z,12.30
2019-03-31T14:43:21.616Z,12.30
2019-03-31T14:45:52.284Z,12.20
2019-03-31T14:48:23.371Z,12.20
2019-03-31T14:50:54.228Z,12.60
2019-03-31T14:53:25.258Z,12.60
2019-03-31T14:55:56.120Z,12.60
2019-03-31T14:58:26.782Z,12.30
2019-03-31T15:00:58.662Z,12.20
2019-03-31T15:03:29.840Z,12.50
2019-03-31T15:06:00.894Z,12.40
2019-03-31T15:08:31.800Z,12.20
2019-03-31T15:11:02.453Z,12.10
2019-03-31T15:13:33.220Z,12.20
2019-03-31T15:16:03.787Z,12.40
2019-03-31T15:18:34.556Z,12.00
2019-03-31T15:21:05.485Z,11.70
2019-03-31T15:23:36.137Z,11.60
2019-03-31T15:26:06.744Z,11.50
2019-03-31T15:28:37.392Z,11.50
2019-03-31T15:31:08.252Z,11.50
2019-03-31T15:33:39.216Z,11.50
2019-03-31T15:36:09.940Z,11.30
2019-03-31T15:38:40.857Z,11.50
2019-03-31T15:41:21.121Z,11.60
2019-03-31T15:43:44.743Z,11.50
2019-03-31T15:46:15.836Z,11.20
2019-03-31T15:48:47.984Z,11.10
2019-03-31T15:51:18.577Z,11.40
2019-03-31T15:53:49.728Z,11.40
2019-03-31T15:56:20.970Z,11.40
2019-03-31T15:58:52.138Z,11.40
2019-03-31T16:01:23.236Z,11.50
2019-03-31T16:03:54.079Z,11.60
2019-03-31T16:06:24.887Z,11.60
2019-03-31T16:08:55.288Z,11.50
2019-03-31T16:11:25.816Z,11.40
2019-03-31T16:13:56.348Z,11.20
2019-03-31T16:16:26.759Z,10.90
2019-03-31T16:18:57.157Z,10.70
2019-03-31T16:21:27.243Z,10.80
2019-03-31T16:23:59.703Z,10.70
2019-03-31T16:26:29.980Z,10.80
2019-03-31T16:29:00.068Z,11.00
2019-03-31T16:31:30.360Z,11.00
2019-03-31T16:34:00.689Z,11.10
2019-03-31T16:36:31.256Z,11.00
2019-03-31T16:39:01.661Z,10.80
2019-03-31T16:41:33.537Z,10.80
2019-03-31T16:44:03.945Z,10.50
2019-03-31T16:46:34.091Z,10.20
2019-03-31T16:49:04.235Z,10.10
2019-03-31T16:51:34.540Z,10.10
2019-03-31T16:54:04.705Z,10.10
2019-03-31T16:56:34.992Z,10.10
2019-03-31T16:59:05.518Z,10.00
2019-03-31T17:01:36.023Z,9.80
2019-03-31T17:04:06.449Z,9.80
2019-03-31T17:06:36.493Z,9.80
2019-03-31T17:09:07.680Z,9.70
2019-03-31T17:11:38.151Z,9.50
2019-03-31T17:14:08.413Z,9.40
2019-03-31T17:16:39.043Z,9.30
2019-03-31T17:19:09.067Z,9.30
2019-03-31T17:21:39.678Z,9.20
2019-03-31T17:24:11.296Z,9.10
2019-03-31T17:26:41.534Z,9.00
2019-03-31T17:29:11.960Z,8.90
2019-03-31T17:31:42.526Z,8.90
2019-03-31T17:34:13.039Z,8.80
2019-03-31T17:36:43.327Z,8.80
2019-03-31T17:39:13.768Z,8.80
2019-03-31T17:41:44.024Z,8.60
2019-03-31T17:44:14.276Z,8.60
2019-03-31T17:46:44.620Z,8.50
2019-03-31T17:49:14.957Z,8.40
2019-03-31T17:51:46.587Z,8.40
2019-03-31T17:54:17.217Z,8.30
2019-03-31T17:56:47.594Z,8.20
2019-03-31T17:59:18.609Z,8.20
2019-03-31T18:01:48.871Z,8.20
2019-03-31T18:04:18.938Z,8.10
2019-03-31T18:06:49.334Z,8.00
2019-03-31T18:09:19.791Z,7.90
2019-03-31T18:11:49.855Z,7.80
2019-03-31T18:14:20.472Z,7.80
2019-03-31T18:16:51.398Z,7.80
2019-03-31T18:19:21.898Z,7.80
2019-03-31T18:21:52.757Z,7.70
2019-03-31T18:24:23.107Z,7.70
2019-03-31T18:26:53.161Z,7.60
2019-03-31T18:29:23.690Z,7.50
2019-03-31T18:31:54.169Z,7.50
2019-03-31T18:34:24.584Z,7.40
2019-03-31T18:36:54.814Z,7.30
2019-03-31T18:39:25.241Z,7.30
2019-03-31T18:41:55.770Z,7.30
2019-03-31T18:44:25.961Z,7.30
2019-03-31T18:46:57.258Z,7.20
2019-03-31T18:49:27.732Z,7.20
2019-03-31T18:51:58.284Z,7.10
2019-03-31T18:54:53.428Z,7.00
2019-03-31T18:57:31.576Z,7.00
2019-03-31T19:00:22.034Z,6.90
2019-03-31T19:03:11.260Z,6.90
2019-03-31T19:05:53.922Z,6.80
2019-03-31T19:08:35.481Z,6.80
2019-03-31T19:11:23.460Z,6.70
2019-03-31T19:14:19.114Z,6.70
2019-03-31T19:17:01.385Z,6.60
2019-03-31T19:19:38.306Z,6.50
2019-03-31T19:22:24.704Z,6.50
2019-03-31T19:25:11.228Z,6.50
2019-03-31T19:27:56.020Z,6.40
2019-03-31T19:30:54.577Z,6.40
2019-03-31T19:33:50.447Z,6.30
2019-03-31T19:36:33.059Z,6.20
2019-03-31T19:39:22.591Z,6.10
2019-03-31T19:42:10.645Z,6.10
2019-03-31T19:44:56.957Z,6.10
2019-03-31T19:47:35.865Z,6.00
2019-03-31T19:50:20.945Z,6.00
2019-03-31T19:53:03.985Z,5.90
2019-03-31T19:55:44.179Z,5.80
2019-03-31T19:58:32.545Z,5.70
2019-03-31T20:01:21.104Z,5.80
2019-03-31T20:04:13.003Z,5.70
2019-03-31T20:06:54.484Z,5.70
2019-03-31T20:09:37.047Z,5.70
2019-03-31T20:12:31.992Z,5.60
2019-03-31T20:15:21.980Z,5.50
2019-03-31T20:18:08.460Z,5.50
2019-03-31T20:20:50.239Z,5.40
2019-03-31T20:23:31.249Z,5.40
2019-03-31T20:26:17.000Z,5.40
2019-03-31T20:28:57.779Z,5.40
2019-03-31T20:31:45.460Z,5.40
2019-03-31T20:34:36.097Z,5.30
2019-03-31T20:37:22.935Z,5.30
2019-03-31T20:40:03.156Z,5.20
2019-03-31T20:42:46.956Z,5.20
2019-03-31T20:45:17.285Z,5.00
2019-03-31T20:47:47.527Z,4.90
2019-03-31T20:50:17.596Z,4.90
2019-03-31T20:52:47.639Z,4.80
2019-03-31T20:55:17.842Z,4.80
2019-03-31T20:57:48.340Z,4.70
2019-03-31T21:00:18.622Z,4.70
2019-03-31T21:02:48.640Z,4.70
2019-03-31T21:05:19.088Z,4.60
2019-03-31T21:07:49.412Z,4.50
2019-03-31T21:10:19.910Z,4.50
2019-03-31T21:12:50.479Z,4.30
2019-03-31T21:15:20.572Z,4.30
2019-03-31T21:17:51.836Z,4.20
2019-03-31T21:20:22.169Z,4.20
2019-03-31T21:22:52.212Z,4.20
2019-03-31T21:25:22.327Z,4.40
2019-03-31T21:27:53.320Z,4.20
2019-03-31T21:30:23.395Z,4.20
2019-03-31T21:32:53.493Z,4.20
2019-03-31T21:35:23.804Z,4.20
2019-03-31T21:37:53.920Z,4.10
2019-03-31T21:40:24.195Z,4.10
2019-03-31T21:42:54.503Z,3.90
2019-03-31T21:45:24.621Z,3.90
2019-03-31T21:47:55.140Z,3.90
2019-03-31T21:50:25.549Z,3.80
2019-03-31T21:52:55.568Z,3.80
2019-03-31T21:55:25.658Z,3.70
2019-03-31T21:57:55.865Z,3.70
2019-03-31T22:00:38.892Z,3.60
2019-03-31T22:03:10.513Z,3.60
2019-03-31T22:05:40.836Z,3.50
2019-03-31T22:08:10.852Z,3.40
2019-03-31T22:10:41.368Z,3.40
2019-03-31T22:13:11.449Z,3.30
2019-03-31T22:15:41.715Z,3.30
2019-03-31T22:18:11.752Z,3.10
2019-03-31T22:20:42.104Z,3.00
2019-03-31T22:23:12.576Z,3.00
2019-03-31T22:25:42.673Z,2.90
2019-03-31T22:28:12.996Z,2.80
2019-03-31T22:30:43.277Z,2.60
2019-03-31T22:33:13.603Z,2.50
2019-03-31T22:36:03.036Z,2.50
2019-03-31T22:38:33.069Z,2.50
2019-03-31T22:41:04.746Z,2.50
2019-03-31T22:43:35.083Z,2.50
2019-03-31T22:46:05.504Z,2.50
2019-03-31T22:48:35.781Z,2.40
2019-03-31T22:51:05.855Z,2.20
2019-03-31T22:53:35.888Z,2.20
2019-03-31T22:56:06.187Z,2.30
2019-03-31T22:58:36.215Z,2.30
2019-03-31T23:01:06.857Z,2.20
2019-03-31T23:03:36.877Z,2.20
2019-03-31T23:06:06.952Z,2.10
2019-03-31T23:08:37.015Z,2.30
2019-03-31T23:11:07.093Z,2.20
2019-03-31T23:13:37.116Z,2.30
2019-03-31T23:16:07.452Z,2.20
2019-03-31T23:18:37.741Z,2.20
2019-03-31T23:21:07.828Z,2.20
2019-03-31T23:23:37.852Z,2.10
2019-03-31T23:26:08.182Z,2.00
2019-03-31T23:28:46.261Z,1.80
2019-03-31T23:31:17.147Z,1.70
2019-03-31T23:33:47.543Z,1.60
2019-03-31T23:36:17.851Z,1.50
2019-03-31T23:38:47.893Z,1.40
2019-03-31T23:41:18.002Z,1.30
2019-03-31T23:43:48.033Z,1.30
2019-03-31T23:46:18.125Z,1.20
2019-03-31T23:48:48.765Z,1.30
2019-03-31T23:51:18.872Z,1.20
2019-03-31T23:53:48.922Z,1.30
2019-03-31T23:56:18.991Z,1.40
2019-03-31T23:58:49.265Z,1.40
